AXB395 VIDP-VABB
Flight info
| Callsign | AXB395 |
|---|---|
| Flight time | N/A |
| Altitude | 36000 |
| Route | DUDUM7G DUDUM Q2 AKTIV IGBAN2A |
| Aircraft | B38M/M-SDE1FGHILORVWXY/HB1 |
Departure
| Time | N/A |
|---|---|
| Airport | Indira Gandhi International Airport (VIDP) |
Arrival
| Time | 2026-04-29 12:21 |
|---|---|
| Airport | Chhatrapati Shivaji Maharaj International Airport (VABB) |
| Time | Latitude | Longitude | Altitude | Speed | Heading |
|---|---|---|---|---|---|
| 2026-04-29 10:52 | 28.22536 | 76.99334 | 11743 ft | 300 kts | 228° |
| 2026-04-29 10:52 | 28.21036 | 76.97665 | 12549 ft | 304 kts | 228° |
| 2026-04-29 10:52 | 28.19524 | 76.95982 | 13390 ft | 306 kts | 228° |
| 2026-04-29 10:53 | 28.17995 | 76.94281 | 14147 ft | 309 kts | 228° |
| 2026-04-29 10:53 | 28.16448 | 76.92560 | 14904 ft | 313 kts | 228° |
| 2026-04-29 10:53 | 28.14906 | 76.90845 | 15640 ft | 316 kts | 228° |
| 2026-04-29 10:53 | 28.13325 | 76.89088 | 16376 ft | 320 kts | 229° |
| 2026-04-29 10:54 | 28.11724 | 76.87308 | 17108 ft | 323 kts | 229° |
| 2026-04-29 10:54 | 28.10105 | 76.85510 | 17815 ft | 327 kts | 229° |
| 2026-04-29 10:54 | 28.08470 | 76.83695 | 18423 ft | 331 kts | 229° |
| 2026-04-29 10:54 | 28.06814 | 76.81858 | 19021 ft | 334 kts | 229° |
| 2026-04-29 10:55 | 28.05141 | 76.80002 | 19630 ft | 337 kts | 229° |
| 2026-04-29 10:55 | 28.04300 | 76.79070 | 19930 ft | 339 kts | 229° |
| 2026-04-29 10:55 | 28.03223 | 76.77876 | 20295 ft | 341 kts | 229° |
| 2026-04-29 10:55 | 28.01771 | 76.76267 | 20793 ft | 344 kts | 229° |
| 2026-04-29 10:56 | 28.00629 | 76.75002 | 21175 ft | 346 kts | 229° |
| 2026-04-29 10:56 | 27.98903 | 76.73090 | 21733 ft | 349 kts | 229° |
| 2026-04-29 10:56 | 27.97156 | 76.71158 | 22293 ft | 352 kts | 229° |
| 2026-04-29 10:57 | 27.95398 | 76.69212 | 22870 ft | 355 kts | 229° |
| 2026-04-29 10:57 | 27.93624 | 76.67251 | 23372 ft | 358 kts | 229° |
| 2026-04-29 10:57 | 27.91831 | 76.65270 | 23623 ft | 361 kts | 229° |
| 2026-04-29 10:57 | 27.90037 | 76.63289 | 23639 ft | 360 kts | 229° |
| 2026-04-29 10:58 | 27.88249 | 76.61314 | 23650 ft | 359 kts | 229° |
| 2026-04-29 10:58 | 27.86460 | 76.59340 | 23648 ft | 359 kts | 229° |
| 2026-04-29 10:58 | 27.84670 | 76.57365 | 23649 ft | 359 kts | 229° |
| 2026-04-29 10:58 | 27.82908 | 76.55423 | 23645 ft | 358 kts | 229° |
| 2026-04-29 10:59 | 27.81101 | 76.53431 | 23655 ft | 358 kts | 229° |
| 2026-04-29 10:59 | 27.79232 | 76.51619 | 23651 ft | 363 kts | 218° |
| 2026-04-29 10:59 | 27.77100 | 76.50041 | 23919 ft | 366 kts | 219° |
| 2026-04-29 10:59 | 27.74982 | 76.48443 | 24436 ft | 367 kts | 219° |
| 2026-04-29 11:00 | 27.72849 | 76.46835 | 24856 ft | 370 kts | 219° |
| 2026-04-29 11:00 | 27.70698 | 76.45215 | 25290 ft | 373 kts | 219° |
| 2026-04-29 11:00 | 27.68530 | 76.43582 | 25730 ft | 375 kts | 219° |
| 2026-04-29 11:00 | 27.66352 | 76.41943 | 26156 ft | 378 kts | 219° |
| 2026-04-29 11:01 | 27.64154 | 76.40289 | 26575 ft | 380 kts | 219° |
| 2026-04-29 11:01 | 27.61947 | 76.38629 | 26978 ft | 383 kts | 219° |
| 2026-04-29 11:01 | 27.59749 | 76.36977 | 27406 ft | 385 kts | 219° |
| 2026-04-29 11:01 | 27.57513 | 76.35297 | 27832 ft | 387 kts | 219° |
| 2026-04-29 11:02 | 27.55261 | 76.33607 | 28241 ft | 389 kts | 219° |
| 2026-04-29 11:02 | 27.52999 | 76.31910 | 28641 ft | 391 kts | 218° |
| 2026-04-29 11:02 | 27.50656 | 76.30298 | 29039 ft | 395 kts | 216° |
| 2026-04-29 11:02 | 27.48304 | 76.28693 | 29413 ft | 397 kts | 217° |
| 2026-04-29 11:03 | 27.45928 | 76.27064 | 29763 ft | 399 kts | 217° |
| 2026-04-29 11:03 | 27.43555 | 76.25434 | 30057 ft | 401 kts | 217° |
| 2026-04-29 11:03 | 27.41166 | 76.23793 | 30345 ft | 404 kts | 217° |
| 2026-04-29 11:03 | 27.38788 | 76.22160 | 30644 ft | 406 kts | 218° |
| 2026-04-29 11:04 | 27.36369 | 76.20500 | 30934 ft | 409 kts | 218° |
| 2026-04-29 11:04 | 27.33930 | 76.18828 | 31197 ft | 412 kts | 218° |
| 2026-04-29 11:04 | 27.31474 | 76.17144 | 31440 ft | 415 kts | 218° |
| 2026-04-29 11:04 | 27.28997 | 76.15447 | 31690 ft | 418 kts | 218° |
| 2026-04-29 11:05 | 27.26513 | 76.13747 | 32036 ft | 419 kts | 218° |
| 2026-04-29 11:05 | 27.24009 | 76.12033 | 32206 ft | 423 kts | 218° |
| 2026-04-29 11:05 | 27.21489 | 76.10308 | 32486 ft | 424 kts | 218° |
| 2026-04-29 11:05 | 27.18952 | 76.08573 | 32722 ft | 428 kts | 218° |
| 2026-04-29 11:06 | 27.16437 | 76.06854 | 32983 ft | 429 kts | 219° |
| 2026-04-29 11:06 | 27.13864 | 76.05097 | 33188 ft | 433 kts | 219° |
| 2026-04-29 11:06 | 27.11459 | 76.03456 | 33358 ft | 437 kts | 219° |
| 2026-04-29 11:06 | 27.08857 | 76.01680 | 33607 ft | 439 kts | 219° |
| 2026-04-29 11:07 | 27.06233 | 75.99891 | 33761 ft | 442 kts | 219° |
| 2026-04-29 11:07 | 27.03606 | 75.98101 | 34016 ft | 443 kts | 219° |
| 2026-04-29 11:07 | 27.00962 | 75.96300 | 34196 ft | 445 kts | 219° |
| 2026-04-29 11:07 | 26.98305 | 75.94491 | 34388 ft | 447 kts | 219° |
| 2026-04-29 11:08 | 26.95676 | 75.92703 | 34579 ft | 448 kts | 219° |
| 2026-04-29 11:08 | 26.93001 | 75.90883 | 34765 ft | 450 kts | 219° |
| 2026-04-29 11:08 | 26.90313 | 75.89057 | 34938 ft | 452 kts | 219° |
| 2026-04-29 11:08 | 26.87613 | 75.87222 | 35120 ft | 454 kts | 219° |
| 2026-04-29 11:09 | 26.84905 | 75.85384 | 35294 ft | 455 kts | 220° |
| 2026-04-29 11:09 | 26.82125 | 75.83628 | 35453 ft | 465 kts | 211° |
| 2026-04-29 11:09 | 26.79079 | 75.82342 | 35689 ft | 469 kts | 209° |
| 2026-04-29 11:10 | 26.72952 | 75.79721 | 35662 ft | 472 kts | 209° |
| 2026-04-29 11:10 | 26.66801 | 75.77110 | 35668 ft | 473 kts | 209° |
| 2026-04-29 11:11 | 26.60632 | 75.74496 | 35676 ft | 473 kts | 209° |
| 2026-04-29 11:11 | 26.54474 | 75.71891 | 35687 ft | 474 kts | 209° |
| 2026-04-29 11:12 | 26.48338 | 75.69298 | 35697 ft | 474 kts | 209° |
| 2026-04-29 11:12 | 26.42153 | 75.66687 | 35700 ft | 475 kts | 209° |
| 2026-04-29 11:13 | 26.35968 | 75.64079 | 35701 ft | 475 kts | 209° |
| 2026-04-29 11:13 | 26.29816 | 75.61488 | 35701 ft | 475 kts | 209° |
| 2026-04-29 11:14 | 26.23611 | 75.58878 | 35702 ft | 476 kts | 209° |
| 2026-04-29 11:14 | 26.17402 | 75.56268 | 35667 ft | 475 kts | 209° |
| 2026-04-29 11:15 | 26.11196 | 75.53664 | 35707 ft | 476 kts | 209° |
| 2026-04-29 11:15 | 26.04987 | 75.51060 | 35712 ft | 477 kts | 209° |
| 2026-04-29 11:16 | 25.98777 | 75.48459 | 35711 ft | 478 kts | 208° |
| 2026-04-29 11:16 | 25.92585 | 75.45870 | 35709 ft | 477 kts | 208° |
| 2026-04-29 11:17 | 25.86378 | 75.43292 | 35714 ft | 476 kts | 208° |
| 2026-04-29 11:17 | 25.80154 | 75.40728 | 35705 ft | 476 kts | 208° |
| 2026-04-29 11:18 | 25.73939 | 75.38169 | 35711 ft | 476 kts | 208° |
| 2026-04-29 11:18 | 25.67721 | 75.35612 | 35714 ft | 476 kts | 208° |
| 2026-04-29 11:19 | 25.61516 | 75.33062 | 35714 ft | 476 kts | 208° |
| 2026-04-29 11:19 | 25.55293 | 75.30508 | 35713 ft | 477 kts | 208° |
| 2026-04-29 11:20 | 25.49069 | 75.27957 | 35716 ft | 477 kts | 208° |
| 2026-04-29 11:20 | 25.42866 | 75.25416 | 35719 ft | 478 kts | 208° |
| 2026-04-29 11:21 | 25.36614 | 75.22859 | 35724 ft | 479 kts | 208° |
| 2026-04-29 11:21 | 25.30356 | 75.20302 | 35726 ft | 479 kts | 208° |
| 2026-04-29 11:22 | 25.24096 | 75.17747 | 35731 ft | 479 kts | 208° |
| 2026-04-29 11:22 | 25.17837 | 75.15196 | 35736 ft | 479 kts | 208° |
| 2026-04-29 11:23 | 25.11575 | 75.12645 | 35740 ft | 479 kts | 208° |
| 2026-04-29 11:23 | 25.05321 | 75.10101 | 35748 ft | 479 kts | 208° |
| 2026-04-29 11:24 | 24.99108 | 75.07577 | 35759 ft | 478 kts | 208° |
| 2026-04-29 11:24 | 24.92863 | 75.05042 | 35756 ft | 478 kts | 208° |
| 2026-04-29 11:25 | 24.86618 | 75.02510 | 35761 ft | 478 kts | 208° |
| 2026-04-29 11:25 | 24.80362 | 74.99976 | 35771 ft | 478 kts | 207° |
| 2026-04-29 11:26 | 24.70994 | 74.96186 | 35767 ft | 479 kts | 207° |
| 2026-04-29 11:26 | 24.64721 | 74.93652 | 35771 ft | 479 kts | 207° |
| 2026-04-29 11:27 | 24.58492 | 74.91138 | 35771 ft | 480 kts | 207° |
| 2026-04-29 11:27 | 24.52217 | 74.88612 | 35769 ft | 481 kts | 207° |
| 2026-04-29 11:28 | 24.45929 | 74.86082 | 35764 ft | 481 kts | 207° |
| 2026-04-29 11:28 | 24.39627 | 74.83549 | 35762 ft | 483 kts | 207° |
| 2026-04-29 11:29 | 24.33301 | 74.81010 | 35757 ft | 483 kts | 207° |
| 2026-04-29 11:29 | 24.26983 | 74.78476 | 35756 ft | 484 kts | 207° |
| 2026-04-29 11:30 | 24.20640 | 74.75935 | 35752 ft | 485 kts | 207° |
| 2026-04-29 11:30 | 24.14294 | 74.73396 | 35757 ft | 485 kts | 207° |
| 2026-04-29 11:31 | 24.07945 | 74.70857 | 35750 ft | 485 kts | 207° |
| 2026-04-29 11:31 | 24.01605 | 74.68321 | 35754 ft | 485 kts | 207° |
| 2026-04-29 11:32 | 23.95266 | 74.65779 | 35749 ft | 485 kts | 207° |
| 2026-04-29 11:32 | 23.88961 | 74.63253 | 35754 ft | 486 kts | 207° |
| 2026-04-29 11:33 | 23.82609 | 74.60711 | 35749 ft | 485 kts | 207° |
| 2026-04-29 11:33 | 23.76252 | 74.58171 | 35750 ft | 485 kts | 207° |
| 2026-04-29 11:34 | 23.70981 | 74.56065 | 35747 ft | 485 kts | 207° |
| 2026-04-29 11:34 | 23.64648 | 74.53538 | 35748 ft | 485 kts | 207° |
| 2026-04-29 11:35 | 23.58295 | 74.51007 | 35746 ft | 485 kts | 207° |
| 2026-04-29 11:35 | 23.51954 | 74.48482 | 35748 ft | 485 kts | 207° |
| 2026-04-29 11:36 | 23.45646 | 74.45973 | 35737 ft | 485 kts | 207° |
| 2026-04-29 11:36 | 23.39299 | 74.43451 | 35747 ft | 485 kts | 207° |
| 2026-04-29 11:37 | 23.32954 | 74.40932 | 35743 ft | 485 kts | 206° |
| 2026-04-29 11:37 | 23.26604 | 74.38414 | 35743 ft | 485 kts | 206° |
| 2026-04-29 11:38 | 23.20305 | 74.35919 | 35740 ft | 485 kts | 206° |
| 2026-04-29 11:38 | 23.13964 | 74.33410 | 35741 ft | 485 kts | 206° |
| 2026-04-29 11:39 | 23.07606 | 74.30897 | 35739 ft | 485 kts | 206° |
| 2026-04-29 11:39 | 23.01294 | 74.28404 | 35745 ft | 485 kts | 206° |
| 2026-04-29 11:40 | 22.94940 | 74.25897 | 35741 ft | 485 kts | 206° |
| 2026-04-29 11:40 | 22.88581 | 74.23391 | 35742 ft | 485 kts | 206° |
| 2026-04-29 11:41 | 22.82230 | 74.20891 | 35742 ft | 486 kts | 206° |
| 2026-04-29 11:41 | 22.75917 | 74.18407 | 35746 ft | 486 kts | 206° |
| 2026-04-29 11:42 | 22.69558 | 74.15909 | 35743 ft | 485 kts | 206° |
| 2026-04-29 11:42 | 22.63206 | 74.13416 | 35741 ft | 485 kts | 206° |
| 2026-04-29 11:43 | 22.56838 | 74.10926 | 35740 ft | 485 kts | 206° |
| 2026-04-29 11:43 | 22.50527 | 74.08460 | 35731 ft | 485 kts | 206° |
| 2026-04-29 11:44 | 22.44168 | 74.05977 | 35737 ft | 485 kts | 206° |
| 2026-04-29 11:44 | 22.37823 | 74.03503 | 35740 ft | 485 kts | 206° |
| 2026-04-29 11:45 | 22.31455 | 74.01021 | 35737 ft | 485 kts | 206° |
| 2026-04-29 11:45 | 22.25102 | 73.98548 | 35740 ft | 485 kts | 206° |
| 2026-04-29 11:46 | 22.18747 | 73.96077 | 35743 ft | 485 kts | 206° |
| 2026-04-29 11:46 | 22.12417 | 73.93618 | 35744 ft | 485 kts | 206° |
| 2026-04-29 11:47 | 22.06055 | 73.91148 | 35748 ft | 485 kts | 205° |
| 2026-04-29 11:47 | 21.99743 | 73.88701 | 35748 ft | 485 kts | 205° |
| 2026-04-29 11:48 | 21.93362 | 73.86229 | 35754 ft | 484 kts | 205° |
| 2026-04-29 11:48 | 21.87047 | 73.83785 | 35759 ft | 485 kts | 205° |
| 2026-04-29 11:49 | 21.80696 | 73.81330 | 35765 ft | 485 kts | 205° |
| 2026-04-29 11:49 | 21.74343 | 73.78875 | 35767 ft | 485 kts | 205° |
| 2026-04-29 11:50 | 21.67983 | 73.76421 | 35771 ft | 485 kts | 205° |
| 2026-04-29 11:50 | 21.61631 | 73.73971 | 35770 ft | 485 kts | 205° |
| 2026-04-29 11:51 | 21.55319 | 73.71540 | 35789 ft | 484 kts | 205° |
| 2026-04-29 11:51 | 21.48964 | 73.69094 | 35770 ft | 484 kts | 205° |
| 2026-04-29 11:52 | 21.42619 | 73.66654 | 35779 ft | 484 kts | 205° |
| 2026-04-29 11:52 | 21.36266 | 73.64214 | 35770 ft | 484 kts | 205° |
| 2026-04-29 11:53 | 21.29965 | 73.61796 | 35775 ft | 484 kts | 205° |
| 2026-04-29 11:53 | 21.23623 | 73.59363 | 35780 ft | 484 kts | 205° |
| 2026-04-29 11:54 | 21.17276 | 73.56932 | 35784 ft | 484 kts | 205° |
| 2026-04-29 11:54 | 21.10865 | 73.54704 | 35787 ft | 485 kts | 202° |
| 2026-04-29 11:55 | 21.04499 | 73.52568 | 35684 ft | 467 kts | 202° |
| 2026-04-29 11:55 | 21.01448 | 73.51540 | 35663 ft | 452 kts | 202° |
| 2026-04-29 11:55 | 20.98525 | 73.50554 | 35553 ft | 440 kts | 202° |
| 2026-04-29 11:56 | 20.95575 | 73.49559 | 34897 ft | 450 kts | 202° |
| 2026-04-29 11:56 | 20.92549 | 73.48540 | 34032 ft | 461 kts | 202° |
| 2026-04-29 11:56 | 20.89466 | 73.47503 | 33318 ft | 464 kts | 202° |
| 2026-04-29 11:56 | 20.86400 | 73.46471 | 32925 ft | 459 kts | 202° |
| 2026-04-29 11:57 | 20.83366 | 73.45450 | 32541 ft | 453 kts | 202° |
| 2026-04-29 11:57 | 20.80362 | 73.44439 | 32065 ft | 450 kts | 202° |
| 2026-04-29 11:57 | 20.77380 | 73.43437 | 31561 ft | 448 kts | 202° |
| 2026-04-29 11:57 | 20.74412 | 73.42440 | 31076 ft | 445 kts | 202° |
| 2026-04-29 11:58 | 20.71465 | 73.41450 | 30599 ft | 442 kts | 202° |
| 2026-04-29 11:58 | 20.68569 | 73.40478 | 30129 ft | 440 kts | 202° |
| 2026-04-29 11:58 | 20.65663 | 73.39502 | 29597 ft | 437 kts | 202° |
| 2026-04-29 11:58 | 20.62769 | 73.38533 | 29057 ft | 434 kts | 202° |
| 2026-04-29 11:59 | 20.59904 | 73.37572 | 28571 ft | 429 kts | 202° |
| 2026-04-29 11:59 | 20.57069 | 73.36622 | 28112 ft | 424 kts | 202° |
| 2026-04-29 11:59 | 20.54266 | 73.35682 | 27650 ft | 420 kts | 202° |
| 2026-04-29 11:59 | 20.51489 | 73.34752 | 27182 ft | 417 kts | 201° |
| 2026-04-29 12:00 | 20.48940 | 73.33900 | 26748 ft | 414 kts | 201° |
| 2026-04-29 12:00 | 20.46925 | 73.33225 | 26411 ft | 412 kts | 201° |
| 2026-04-29 12:00 | 20.44219 | 73.32319 | 25952 ft | 409 kts | 201° |
| 2026-04-29 12:00 | 20.41876 | 73.31535 | 25558 ft | 406 kts | 201° |
| 2026-04-29 12:01 | 20.39388 | 73.30703 | 25145 ft | 404 kts | 201° |
| 2026-04-29 12:01 | 20.36673 | 73.29796 | 24695 ft | 401 kts | 201° |
| 2026-04-29 12:01 | 20.34014 | 73.28907 | 24238 ft | 400 kts | 201° |
| 2026-04-29 12:01 | 20.31364 | 73.28022 | 23788 ft | 398 kts | 201° |
| 2026-04-29 12:02 | 20.28763 | 73.27154 | 23342 ft | 396 kts | 200° |
| 2026-04-29 12:02 | 20.26146 | 73.26280 | 22821 ft | 394 kts | 200° |
| 2026-04-29 12:02 | 20.23527 | 73.25436 | 22300 ft | 393 kts | 199° |
| 2026-04-29 12:02 | 20.20917 | 73.24611 | 21845 ft | 389 kts | 200° |
| 2026-04-29 12:03 | 20.18504 | 73.23844 | 21469 ft | 384 kts | 200° |
| 2026-04-29 12:03 | 20.15938 | 73.23029 | 21043 ft | 381 kts | 200° |
| 2026-04-29 12:03 | 20.13454 | 73.22241 | 20617 ft | 378 kts | 200° |
| 2026-04-29 12:03 | 20.10889 | 73.21427 | 20109 ft | 377 kts | 200° |
| 2026-04-29 12:04 | 20.08369 | 73.20627 | 19513 ft | 380 kts | 200° |
| 2026-04-29 12:04 | 20.05821 | 73.19818 | 18893 ft | 383 kts | 200° |
| 2026-04-29 12:04 | 20.03195 | 73.19287 | 18363 ft | 387 kts | 186° |
| 2026-04-29 12:04 | 20.00516 | 73.19097 | 17885 ft | 384 kts | 187° |
| 2026-04-29 12:05 | 19.97860 | 73.18879 | 17423 ft | 381 kts | 187° |
| 2026-04-29 12:05 | 19.95259 | 73.18661 | 16988 ft | 377 kts | 187° |
| 2026-04-29 12:05 | 19.92654 | 73.18441 | 16542 ft | 374 kts | 187° |
| 2026-04-29 12:05 | 19.90074 | 73.18223 | 16103 ft | 370 kts | 187° |
| 2026-04-29 12:06 | 19.87516 | 73.18007 | 15662 ft | 367 kts | 187° |
| 2026-04-29 12:06 | 19.84982 | 73.17793 | 15231 ft | 364 kts | 187° |
| 2026-04-29 12:06 | 19.82459 | 73.17579 | 14800 ft | 361 kts | 187° |
| 2026-04-29 12:06 | 19.79962 | 73.17368 | 14376 ft | 358 kts | 187° |
| 2026-04-29 12:07 | 19.77486 | 73.17159 | 13947 ft | 355 kts | 187° |
| 2026-04-29 12:07 | 19.75030 | 73.16951 | 13505 ft | 352 kts | 187° |
| 2026-04-29 12:07 | 19.72590 | 73.16745 | 13030 ft | 349 kts | 187° |
| 2026-04-29 12:07 | 19.70204 | 73.16544 | 12606 ft | 346 kts | 187° |
| 2026-04-29 12:08 | 19.67815 | 73.16342 | 12160 ft | 342 kts | 187° |
| 2026-04-29 12:08 | 19.65460 | 73.16143 | 11756 ft | 338 kts | 187° |
| 2026-04-29 12:08 | 19.63132 | 73.15946 | 11344 ft | 334 kts | 187° |
| 2026-04-29 12:08 | 19.60826 | 73.15752 | 10938 ft | 331 kts | 187° |
| 2026-04-29 12:09 | 19.58539 | 73.15560 | 10519 ft | 328 kts | 188° |
| 2026-04-29 12:09 | 19.56276 | 73.15369 | 10183 ft | 322 kts | 187° |
| 2026-04-29 12:09 | 19.54085 | 73.15184 | 10022 ft | 310 kts | 188° |
| 2026-04-29 12:09 | 19.51970 | 73.15013 | 9857 ft | 300 kts | 186° |
| 2026-04-29 12:10 | 19.49915 | 73.14970 | 9706 ft | 290 kts | 184° |
| 2026-04-29 12:10 | 19.47931 | 73.14932 | 9565 ft | 279 kts | 185° |
| 2026-04-29 12:10 | 19.46026 | 73.14891 | 9419 ft | 268 kts | 185° |
| 2026-04-29 12:10 | 19.44178 | 73.14847 | 9302 ft | 266 kts | 185° |
| 2026-04-29 12:11 | 19.42320 | 73.14803 | 9158 ft | 268 kts | 185° |
| 2026-04-29 12:11 | 19.40480 | 73.14759 | 9040 ft | 268 kts | 185° |
| 2026-04-29 12:11 | 19.38594 | 73.14713 | 8904 ft | 267 kts | 185° |
| 2026-04-29 12:11 | 19.36740 | 73.14667 | 8768 ft | 267 kts | 185° |
| 2026-04-29 12:12 | 19.34880 | 73.14622 | 8653 ft | 267 kts | 185° |
| 2026-04-29 12:12 | 19.33037 | 73.14577 | 8541 ft | 268 kts | 185° |
| 2026-04-29 12:12 | 19.31172 | 73.14532 | 8401 ft | 268 kts | 185° |
| 2026-04-29 12:12 | 19.29304 | 73.14486 | 8285 ft | 268 kts | 185° |
| 2026-04-29 12:13 | 19.27455 | 73.14443 | 8198 ft | 260 kts | 185° |
| 2026-04-29 12:13 | 19.25715 | 73.14401 | 8098 ft | 241 kts | 185° |
| 2026-04-29 12:13 | 19.24093 | 73.14361 | 7980 ft | 225 kts | 185° |
| 2026-04-29 12:13 | 19.22725 | 73.14329 | 7882 ft | 211 kts | 186° |
| 2026-04-29 12:14 | 19.21329 | 73.14155 | 7709 ft | 196 kts | 206° |
| 2026-04-29 12:14 | 19.20216 | 73.13565 | 7364 ft | 197 kts | 213° |
| 2026-04-29 12:14 | 19.19001 | 73.12850 | 6924 ft | 203 kts | 213° |
| 2026-04-29 12:14 | 19.17766 | 73.12111 | 6455 ft | 209 kts | 214° |
| 2026-04-29 12:15 | 19.16488 | 73.11337 | 5989 ft | 215 kts | 214° |
| 2026-04-29 12:15 | 19.15174 | 73.10537 | 5512 ft | 219 kts | 214° |
| 2026-04-29 12:15 | 19.13858 | 73.09731 | 5133 ft | 218 kts | 214° |
| 2026-04-29 12:15 | 19.12549 | 73.08925 | 4769 ft | 218 kts | 214° |
| 2026-04-29 12:16 | 19.11230 | 73.08112 | 4343 ft | 220 kts | 214° |
| 2026-04-29 12:16 | 19.09926 | 73.07235 | 3874 ft | 220 kts | 226° |
| 2026-04-29 12:16 | 19.09201 | 73.05900 | 3487 ft | 209 kts | 261° |
| 2026-04-29 12:16 | 19.09104 | 73.04428 | 3236 ft | 193 kts | 271° |
| 2026-04-29 12:17 | 19.09096 | 73.03028 | 2891 ft | 188 kts | 271° |
| 2026-04-29 12:17 | 19.09080 | 73.01680 | 2618 ft | 178 kts | 270° |
| 2026-04-29 12:17 | 19.09061 | 73.00373 | 2360 ft | 176 kts | 271° |
| 2026-04-29 12:17 | 19.09044 | 72.99107 | 2109 ft | 172 kts | 269° |
| 2026-04-29 12:18 | 19.09026 | 72.97853 | 1874 ft | 170 kts | 269° |
| 2026-04-29 12:18 | 19.09008 | 72.96615 | 1660 ft | 164 kts | 270° |
| 2026-04-29 12:18 | 19.08994 | 72.95471 | 1459 ft | 145 kts | 268° |
| 2026-04-29 12:18 | 19.08977 | 72.94408 | 1264 ft | 145 kts | 269° |
| 2026-04-29 12:19 | 19.08963 | 72.93344 | 1056 ft | 143 kts | 268° |
| 2026-04-29 12:19 | 19.08948 | 72.92285 | 886 ft | 144 kts | 268° |
| 2026-04-29 12:19 | 19.08935 | 72.91242 | 731 ft | 144 kts | 268° |
| 2026-04-29 12:19 | 19.08925 | 72.90189 | 566 ft | 143 kts | 265° |
| 2026-04-29 12:20 | 19.08898 | 72.89132 | 333 ft | 141 kts | 263° |
| 2026-04-29 12:20 | 19.08882 | 72.88096 | 154 ft | 141 kts | 268° |
| 2026-04-29 12:20 | 19.08877 | 72.87064 | 36 ft | 132 kts | 267° |
| 2026-04-29 12:20 | 19.08864 | 72.86317 | 32 ft | 68 kts | 269° |
| 2026-04-29 12:21 | 19.08893 | 72.85945 | 32 ft | 37 kts | 295° |
| 2026-04-29 12:21 | 19.08998 | 72.85756 | 34 ft | 20 kts | 300° |
| 2026-04-29 12:21 | 19.09029 | 72.85613 | 35 ft | 20 kts | 266° |
| 2026-04-29 12:21 | 19.09020 | 72.85450 | 35 ft | 17 kts | 276° |
| 2026-04-29 12:22 | 19.09085 | 72.85407 | 35 ft | 15 kts | 7° |
| 2026-04-29 12:22 | 19.09130 | 72.85409 | 35 ft | 8 kts | 355° |
| 2026-04-29 12:22 | 19.09157 | 72.85406 | 35 ft | 0 kts | 353° |